Southeastern Grand Banks: Past 24 Hour Conditions

 

Charlottetown Airport

12:00 PM AST 06 March 2015
Disclaimer

This table is a summary of hourly weather conditions for the past 24 hours.
Please note that these observations might not always be representative of weather conditions over their associated marine area.

Date / Time
(AST)
Wind(knots) Conditions Visibility(km) Pressure(kPa) Air tempC) Relative humidity(%) Dew pointC) Wind Chill
06 March 2015
12:00 W 9 Mainly Sunny 24 102.7 -12 50 -20 -19
11:00 W 9 Mainly Sunny 24 102.7 -12 56 -20 -20
10:00 W 8 Mainly Sunny 24 102.7 -13 63 -19 -21
9:00 W 8 Mainly Sunny 24 102.6 -14 67 -19 -22
8:00 WNW 10 Mainly Sunny 24 102.5 -15 71 -19 -24
7:00 WNW 6 Mainly Sunny 24 102.4 -17 73 -21 -24
6:00 W 5 Mainly Clear 24 102.4 -17 75 -21 -23
5:00 W 4 Mainly Clear 24 102.3 -17 73 -20 -22
4:00 WSW 6 Partly Cloudy 24 102.2 -16 68 -20 -23
3:00 NNW 5 Partly Cloudy 24 102.1 -14 60 -20 -19
2:00 N 8 Mostly Cloudy 24 102.1 -13 60 -19 -20
1:00 NNW 7 gust 15 Mostly Cloudy 24 102.0 -12 60 -19 -19
0:00 WNW 9 Light Snowshower 24 102.0 -13 66 -18 -21
05 March 2015
23:00 WNW 11 gust 18 Partly Cloudy 24 101.9 -12 60 -19 -21
22:00 NW 11 gust 20 Mostly Cloudy 24 101.8 -12 55 -19 -20
21:00 NW 8 Mostly Cloudy 24 101.7 -11 56 -19 -19
20:00 NW 7 Mostly Cloudy 24 101.6 -11 51 -19 -18
19:00 WNW 10 Mostly Cloudy 24 101.6 -10 42 -21 -18
18:00 WNW 11 gust 16 Mostly Cloudy 24 101.4 -10 43 -20 -18
17:00 WNW 10 Mostly Cloudy 24 101.3 -9 46 -19 -16
16:00 WNW 14 gust 20 Mostly Cloudy 24 101.2 -9 43 -19 -17
15:00 WNW 19 gust 26 Mostly Cloudy 24 101.1 -8 40 -19 -17
14:00 WNW 15 gust 21 Mostly Cloudy 24 101.0 -7 45 -17 -16
13:00 WNW 14 gust 26 Mostly Cloudy 24 101.1 -7 44 -17 -15
12:00 W 19 gust 27 Mostly Cloudy 24 101.0 -7 45 -17 -16

Zoom-in to make a selection

Map of Atlantic - Newfoundland marine weather areas Southwestern Grand Banks - 44138 Banquereau - 44139 Tail of the Bank - 44140 Nickerson Bank - 44251 Northeast Burgeo Bank - 44255 Blanc-Sablon Airport Cap Whittle Chevery Natashquan Airport Heath Point Miscou Island Grand Étang Ingonish Beach North Mountain St.Paul Island J.A. Douglas McCurdy Sydney Airport Charlottetown Airport East Point North Cape Argentia Bonavista Burgeo Cape Race Corner Brook Daniel's Harbour Englee Ferolle Point La Scie Port aux Basques Rocky Harbour Sagona Island St. Anthony Airport St. John's Int'l Airport St. Lawrence Stephenville Airport Twillingate Winterland Wreckhouse Cartwright Airport Mary's Harbour Grates Cove Pool's Island Marticot Island Long Pond Îles de la Madeleine Airport
Legend:
buoy Buoy
land station Land Station

Atlantic - Newfoundland Area

Another Region

What we are doing

Date modified: